Terminal Aerodrome Forecast
Issued by NWS Cleveland, OH

Home | Current Version | Previous Version | Text Only | Print | Product List | Glossary Off
Versions: 1 2 3 4 5 6 7 8 9 10 11 12 13 14 15 16

000
FTUS41 KCLE 182336
TAFTOL
TAF
KTOL 182336Z 1900/1924 28010KT P6SM BKN100
     FM190300 23006KT P6SM BKN070
     FM191200 27006KT 6SM -SHRA VCTS OVC050CB
     FM191600 28008KT P6SM BKN070
     FM191800 29008KT P6SM SCT070=

USA.gov is the U.S. government's official web portal to all federal, state and local government web resources and services.